Date,TemperatureHighF,TemperatureAvgF,TemperatureLowF,DewpointHighF,DewpointAvgF,DewpointLowF,HumidityHigh,HumidityAvg,HumidityLow,PressureMaxIn,PressureMinIn,WindSpeedMaxMPH,WindSpeedAvgMPH,GustSpeedMaxMPH,PrecipitationSumIn
2013-1-1,47.0,43.2,39.3,41.5,37.4,28.9,95,81,56,30.06,29.90,5,1,5,0.14
2013-1-2,43.0,38.3,34.3,38.0,33.6,26.9,97,84,67,30.25,30.00,9,1,9,0.04
2013-1-3,39.6,33.5,25.9,27.0,23.2,18.7,91,67,49,30.28,30.18,5,1,5,0.00
2013-1-4,46.0,34.0,23.4,27.5,24.0,21.4,94,70,40,30.27,30.15,17,2,17,0.00
2013-1-5,48.7,37.3,27.6,32.1,24.5,20.5,85,62,36,30.40,30.23,11,1,11,0.00
2013-1-6,52.0,42.6,34.3,38.9,33.4,29.5,95,72,46,30.24,30.05,11,1,11,0.03
2013-1-7,48.2,39.4,29.4,34.7,30.5,26.3,89,71,50,30.46,30.17,13,1,13,0.00
2013-1-8,49.5,37.6,27.5,37.7,32.2,26.0,96,82,59,30.49,30.39,9,1,9,0.00
2013-1-9,63.9,48.0,32.8,53.2,42.8,31.2,97,83,65,30.42,30.28,11,1,12,0.00
2013-1-10,57.4,45.7,35.5,45.0,36.2,32.0,98,73,39,30.59,30.39,9,1,9,0.00
2013-1-11,45.8,41.2,35.4,45.3,38.8,31.9,98,91,76,30.51,30.13,5,1,5,0.09
2013-1-12,51.5,48.2,45.0,50.4,47.6,44.5,99,98,95,30.19,30.11,3,1,3,0.00
2013-1-13,68.8,58.3,49.9,62.7,56.8,49.4,100,95,81,30.14,30.01,13,1,13,0.01
2013-1-14,63.4,56.4,43.4,62.0,55.0,42.0,97,95,90,30.27,30.02,11,1,12,0.61
2013-1-15,43.3,40.7,39.4,42.0,40.0,38.6,98,97,94,30.33,30.13,11,1,18,0.87
2013-1-16,43.9,40.4,36.9,43.5,39.9,36.4,99,98,98,30.14,29.93,9,1,9,0.31
2013-1-17,45.5,41.2,32.8,45.2,40.7,32.2,99,98,96,30.15,29.99,7,1,7,0.79
2013-1-19,50.9,42.9,37.1,34.7,31.8,30.1,80,66,46,30.25,30.08,11,1,12,0.23
2013-1-20,58.9,44.5,33.5,39.7,31.6,25.5,85,63,35,30.08,29.89,21,2,21,0.00
2013-1-21,53.1,39.5,26.7,31.1,24.8,10.1,90,59,30,30.11,29.80,17,2,18,0.00
2013-1-22,36.5,27.5,19.5,12.2,4.5,-4.6,59,38,23,30.32,29.95,17,2,28,0.00
2013-1-23,32.6,23.7,11.9,22.8,6.7,-1.2,83,51,25,30.39,30.13,17,2,17,0.00
2013-1-24,30.6,23.8,14.9,23.7,13.8,3.4,91,68,35,30.57,30.04,19,2,20,0.00
2013-1-25,25.9,19.7,13.1,20.8,13.8,5.8,91,79,43,30.56,30.11,11,1,11,0.00
2013-1-26,39.2,29.7,22.6,29.3,24.6,20.1,93,82,59,30.46,30.10,11,1,11,0.05
2013-1-27,38.6,33.3,24.1,28.6,24.4,21.5,93,71,55,30.63,30.46,11,1,11,0.00
2013-1-28,52.1,43.7,33.0,43.1,34.2,24.4,96,70,60,30.55,30.20,17,1,17,0.12
2013-1-29,73.0,58.7,42.6,58.6,48.9,41.4,97,71,55,30.20,30.01,15,1,15,0.12
2013-1-30,70.7,66.2,58.8,64.1,60.6,53.7,91,83,74,30.01,29.32,31,4,31,0.07
2013-1-31,65.8,40.3,30.3,63.4,29.3,18.1,94,66,43,30.02,29.28,27,2,27,0.58
2013-2-1,35.9,30.4,21.0,27.6,13.0,2.0,80,51,27,30.47,29.85,33,3,34,0.00
2013-2-2,37.8,27.1,17.0,27.7,16.5,9.0,92,67,34,30.48,30.08,15,1,15,0.00
2013-2-3,42.2,33.9,27.6,31.8,26.9,18.7,93,77,53,30.08,29.90,15,1,15,0.02
2013-2-4,40.5,33.0,22.8,26.5,20.5,16.5,87,61,43,30.20,30.00,13,1,13,0.00
2013-2-5,57.2,44.9,34.9,38.5,32.3,25.8,81,62,43,30.00,29.89,13,1,13,0.00
2013-2-6,55.5,42.1,29.8,36.5,31.3,27.7,94,68,37,30.40,29.99,15,1,15,0.00
2013-2-7,45.0,37.7,29.6,36.0,30.1,26.9,92,75,56,30.49,30.21,9,1,10,0.07
2013-2-8,49.9,41.3,36.2,43.7,36.4,26.7,97,84,56,30.21,29.82,29,2,29,0.53
2013-2-9,48.5,37.4,27.0,28.1,21.1,13.4,80,54,26,30.46,30.01,21,2,21,0.00
2013-2-10,49.2,34.8,20.9,30.2,21.8,17.6,90,62,30,30.58,30.32,9,1,9,0.00
2013-2-11,59.1,48.3,38.6,56.0,46.1,28.9,98,92,56,30.32,29.87,19,2,19,0.07
2013-2-12,59.2,49.1,38.4,46.4,33.1,24.2,87,56,27,30.08,29.89,15,1,15,0.00
2013-2-13,45.9,42.1,36.8,40.9,36.6,29.6,95,81,55,29.99,29.69,13,1,14,0.08
2013-2-14,50.7,38.5,29.6,39.8,32.4,28.5,98,81,44,30.12,29.86,9,1,9,0.00
2013-2-15,61.8,45.1,30.3,40.2,32.6,27.0,97,68,27,30.13,29.95,23,2,23,0.00
2013-2-16,41.8,35.5,29.2,37.1,32.8,22.1,97,90,73,30.09,29.90,11,1,11,0.17
2013-2-17,34.2,27.9,21.8,23.4,12.8,3.8,91,56,31,30.32,29.93,29,3,29,0.00
2013-2-18,47.9,32.4,17.3,23.2,15.0,6.5,85,53,21,30.48,30.28,11,1,12,0.00
2013-2-19,47.6,39.7,33.3,45.9,34.4,20.9,97,82,54,30.29,29.84,21,1,21,0.12
2013-2-20,46.2,36.8,27.2,34.4,21.1,14.6,97,56,31,30.22,29.95,17,2,17,0.00
2013-2-21,45.0,34.0,25.3,22.2,18.7,16.3,75,55,33,30.39,30.20,17,2,17,0.00
2013-2-22,39.1,35.2,32.3,33.8,26.5,19.0,92,71,57,30.44,30.27,7,1,7,0.03
2013-2-23,43.1,38.9,35.4,41.9,37.8,33.7,98,96,92,30.27,29.88,7,1,7,0.09
2013-2-24,56.4,44.9,33.8,43.7,36.4,24.4,98,76,32,30.18,29.86,19,1,19,0.00
2013-2-25,44.9,34.9,25.7,25.3,23.4,21.6,87,65,41,30.30,30.17,13,1,13,0.00
2013-2-26,51.0,39.2,27.4,50.5,36.9,22.9,98,91,81,30.29,29.62,15,1,18,0.44
2013-2-27,59.6,47.9,36.5,48.2,41.3,34.3,98,81,46,29.77,29.61,17,2,17,0.00
2013-2-28,51.2,42.2,35.9,38.2,31.6,24.6,92,68,41,29.84,29.70,21,2,21,0.00
2013-3-1,45.2,39.7,31.2,31.9,28.6,24.7,89,65,53,29.97,29.83,17,1,17,0.00
2013-3-2,39.8,36.6,32.1,26.3,25.1,23.2,77,63,53,29.98,29.89,13,1,13,0.00
2013-3-3,45.6,34.9,25.3,25.5,21.8,18.5,92,61,37,30.01,29.87,21,2,21,0.00
2013-3-4,48.2,34.4,23.0,21.6,17.0,12.4,84,53,24,30.13,30.01,21,2,21,0.00
2013-3-5,49.9,37.2,25.4,39.4,26.1,15.9,96,68,35,30.16,29.76,9,1,9,0.39
2013-3-6,36.9,35.0,33.0,36.1,34.1,32.2,97,97,96,29.76,29.52,13,1,13,0.29
2013-3-7,49.5,41.2,34.9,30.7,28.2,26.9,74,60,44,30.25,30.15,25,2,25,0.54
2013-3-8,49.2,40.1,29.2,33.3,28.5,24.5,88,64,46,30.34,30.21,37,3,37,0.03
2013-3-9,59.6,43.1,28.5,31.3,27.5,23.1,92,59,26,30.41,30.31,15,1,15,0.00
2013-3-10,65.2,46.6,28.5,39.5,27.6,20.9,91,55,19,30.40,30.27,13,1,13,0.00
2013-3-11,67.8,53.7,41.2,52.5,46.2,39.2,97,77,54,30.31,29.99,17,2,17,0.00
2013-3-12,70.4,58.4,43.5,62.9,53.3,36.3,98,84,63,30.01,29.77,23,2,23,0.35
2013-3-13,54.7,42.1,31.3,36.6,29.8,18.1,97,65,34,30.16,29.98,27,2,28,0.00
2013-3-14,51.7,38.8,27.9,24.2,19.0,12.8,82,48,23,30.25,30.10,27,2,27,0.00
2013-3-15,59.7,43.3,27.5,35.7,27.9,20.1,85,58,31,30.20,29.89,21,2,21,0.00
2013-3-16,69.8,51.8,43.2,55.6,44.4,-99.9,98,78,52,29.92,29.63,13,-3,13,0.25
2013-3-17,47.5,39.3,33.1,45.5,37.5,32.4,97,93,88,30.34,29.93,3,0,3,0.32
2013-3-18,36.0,34.1,33.1,35.4,33.5,32.4,98,98,97,30.36,29.96,4,0,4,0.50
2013-3-19,64.6,45.4,33.4,44.4,29.9,4.6,98,66,17,30.05,29.80,15,0,17,0.21
2013-3-20,56.7,44.8,29.5,25.7,16.3,5.0,79,34,16,30.11,29.82,9,0,11,0.00
2013-3-21,46.6,37.2,29.1,27.7,18.8,9.0,77,49,27,30.01,29.78,12,1,12,0.00
2013-3-22,50.0,36.0,23.9,25.2,17.3,10.9,74,49,27,30.09,29.97,11,0,11,0.00
2013-3-23,55.8,40.2,25.2,29.1,22.6,18.0,85,54,24,30.14,29.98,12,0,12,0.00
2013-3-24,41.4,36.5,33.1,34.0,28.8,23.4,96,75,55,30.05,29.70,4,0,4,0.06
2013-3-25,39.0,35.2,32.7,37.2,33.8,31.6,97,95,91,29.79,29.59,2,0,3,0.41
2013-3-26,50.0,38.6,28.8,36.1,29.7,25.5,98,74,40,30.11,29.79,12,0,12,0.09
2013-3-27,53.8,39.6,27.7,31.6,26.5,22.1,96,64,34,30.24,30.11,12,0,12,0.00
2013-3-28,54.1,41.4,28.2,30.0,26.6,24.6,90,59,34,30.33,30.20,11,1,13,0.00
2013-3-29,58.8,45.7,33.4,33.6,29.5,26.4,86,57,30,30.35,30.22,9,0,10,0.00
2013-3-30,63.7,49.5,33.1,36.5,30.6,25.9,92,53,25,30.30,30.15,10,0,10,0.00
2013-3-31,56.3,49.7,45.1,53.4,44.9,32.9,96,84,57,30.17,29.81,7,0,7,0.13
2013-4-1,71.4,53.8,39.6,51.3,40.4,25.5,99,66,34,30.05,29.81,13,1,14,0.00
2013-4-2,56.5,45.0,31.5,26.8,19.8,9.9,76,39,17,30.23,30.05,10,0,11,0.00
2013-4-3,57.7,42.9,27.1,25.2,17.3,10.6,81,40,16,30.44,30.23,9,0,10,0.00
2013-4-4,51.3,40.0,29.7,37.2,22.9,12.4,95,54,25,30.50,30.11,5,0,5,0.51
2013-4-5,64.9,49.1,37.2,43.7,36.3,30.4,97,68,29,30.11,29.91,9,0,9,0.30
2013-4-6,60.4,49.2,39.7,34.0,26.3,19.4,66,43,21,30.38,30.09,7,0,7,0.00
2013-4-7,71.8,54.1,34.2,43.2,37.1,30.4,91,56,31,30.36,30.09,8,1,10,0.00
2013-4-8,82.8,66.1,48.6,52.5,48.0,42.4,83,55,30,30.16,30.03,7,0,9,0.00
2013-4-9,87.4,73.0,57.0,56.7,53.2,50.5,83,53,29,30.17,30.03,8,0,9,0.00
2013-4-10,91.8,76.7,61.7,60.1,56.5,52.3,82,53,28,30.08,29.89,7,0,8,0.00
2013-4-11,87.1,74.6,63.3,61.7,58.7,55.8,83,59,37,29.95,29.80,8,1,9,0.00
2013-4-12,82.2,72.2,63.9,71.6,62.5,42.6,97,73,41,29.81,29.61,10,0,10,0.47
2013-4-13,72.7,61.3,47.1,53.2,43.2,36.5,93,55,28,30.00,29.74,11,0,12,0.00
2013-4-14,76.3,60.6,41.9,45.1,39.9,32.5,87,52,25,30.16,30.00,7,0,7,0.00
2013-4-15,67.8,59.1,53.1,56.7,51.9,39.4,97,79,46,30.32,30.13,6,0,6,0.09
2013-4-16,77.7,64.2,52.0,61.3,56.4,50.9,97,78,49,30.37,30.22,6,0,7,0.00
2013-4-17,82.8,70.2,60.4,64.0,60.4,57.4,93,73,47,30.25,30.16,4,0,5,0.00
2013-4-18,80.4,69.1,59.2,64.4,59.3,56.1,94,73,45,30.26,30.07,11,0,11,0.00
2013-4-19,81.1,70.1,63.5,67.3,63.6,59.4,97,81,60,30.08,29.71,11,-3,13,0.55
2013-4-20,64.2,55.1,45.9,63.3,39.2,26.1,97,59,26,30.36,29.79,8,0,11,0.01
2013-4-21,57.7,49.2,40.8,41.2,32.0,28.0,80,53,34,30.63,30.36,7,0,8,0.00
2013-4-22,60.3,47.3,34.3,43.5,38.0,32.5,95,72,46,30.61,30.42,7,0,9,0.00
2013-4-23,61.2,51.4,46.6,48.7,45.2,42.3,94,80,59,30.42,30.19,6,0,6,0.00
2013-4-24,78.8,61.8,44.4,58.3,51.3,43.3,97,72,42,30.19,29.93,13,0,13,0.00
2013-4-25,66.6,57.8,48.4,57.0,40.7,32.9,82,55,30,30.34,30.01,9,0,9,0.01
2013-4-26,69.8,55.1,39.4,45.7,39.8,31.8,95,62,26,30.52,30.34,7,0,7,0.00
2013-4-27,73.0,59.9,46.6,47.7,43.5,36.5,87,58,32,30.47,30.33,9,0,9,0.00
2013-4-28,65.5,57.2,50.4,53.1,45.3,39.2,95,66,45,30.36,30.19,4,0,5,0.01
2013-4-29,62.6,58.3,53.8,61.5,57.4,52.7,98,97,92,30.21,30.05,4,0,6,0.64
2013-4-30,64.0,58.6,55.9,59.9,56.7,55.0,98,94,83,30.30,30.12,5,0,7,0.03
2013-5-1,70.5,59.7,53.8,55.6,50.3,42.6,98,74,43,30.45,30.29,8,0,8,0.00
2013-5-2,66.6,56.6,49.6,54.0,50.5,43.9,95,81,56,30.47,30.35,7,0,8,0.00
2013-5-3,71.1,55.8,44.8,55.8,46.8,41.7,97,75,39,30.40,30.31,8,0,8,0.00
2013-5-4,65.5,52.1,43.3,52.9,46.4,41.7,94,82,59,30.36,30.21,7,0,8,0.00
2013-5-5,64.8,54.2,44.1,51.4,46.8,39.7,90,77,57,30.25,30.17,8,0,8,0.00
2013-5-6,66.6,58.7,53.1,61.5,56.3,50.7,98,92,75,30.19,29.99,7,0,9,0.28
2013-5-7,73.8,62.7,56.5,66.7,59.8,53.2,99,91,55,30.03,29.89,7,0,7,1.19
2013-5-8,66.9,58.9,54.9,61.0,57.5,54.5,99,96,72,30.06,29.98,0,0,0,0.12
2013-5-9,77.2,62.8,52.3,63.7,57.6,52.0,99,86,51,30.09,30.00,7,0,9,0.00
2013-5-10,85.1,70.0,55.9,66.6,60.6,55.4,98,75,42,30.09,29.94,4,0,5,0.00
2013-5-11,78.8,70.5,60.4,67.6,63.5,59.0,97,80,60,29.98,29.79,9,0,10,0.60
2013-5-12,70.2,62.0,47.7,60.8,50.1,33.8,99,69,31,30.10,29.80,9,0,9,0.01
2013-5-13,63.3,50.6,39.0,46.0,37.0,27.3,96,64,29,30.24,30.10,9,0,9,0.00
2013-5-14,68.2,53.3,35.2,46.8,38.6,32.5,96,62,30,30.31,30.11,9,0,13,0.00
2013-5-15,86.5,70.3,53.6,65.1,55.7,42.1,78,61,44,30.12,29.82,6,0,7,0.00
2013-5-16,87.1,71.7,64.0,65.7,62.4,57.4,98,76,41,30.01,29.86,13,0,13,0.25
2013-5-17,81.9,70.4,61.7,66.2,60.7,51.6,99,75,39,30.20,29.98,5,0,5,0.00
2013-5-18,65.5,62.6,59.2,64.6,61.7,57.6,99,97,77,30.26,30.17,4,0,4,0.80
2013-5-19,75.0,67.0,62.4,70.9,65.3,62.1,99,95,82,30.24,30.13,2,0,2,0.04
2013-5-20,81.1,70.2,63.7,73.4,68.0,63.3,99,93,71,30.17,30.06,3,0,4,0.01
2013-5-21,80.8,71.8,67.1,73.6,69.3,66.6,99,92,73,30.08,29.96,2,0,2,0.01
2013-5-22,84.7,75.4,68.7,75.0,70.3,67.3,98,85,66,30.03,29.91,5,0,7,0.00
2013-5-23,81.3,72.4,64.9,72.7,68.4,63.5,98,88,62,29.99,29.83,5,0,5,0.08
2013-5-24,66.0,60.1,46.9,63.7,53.3,40.1,98,80,49,30.23,29.83,9,0,9,0.03
2013-5-25,68.7,53.7,40.1,45.0,39.2,33.3,89,61,31,30.31,30.17,10,0,10,0.00
2013-5-26,73.0,58.3,42.6,48.2,42.8,33.8,92,61,28,30.32,30.21,11,0,11,0.00
2013-5-27,74.8,61.2,46.6,60.6,51.3,43.0,91,72,42,30.34,30.23,3,0,3,0.00
2013-5-28,85.5,70.9,55.9,71.1,62.8,54.1,95,77,56,30.26,30.14,5,0,7,0.00
2013-5-29,88.3,76.4,66.4,72.0,66.4,63.3,91,73,51,30.22,30.16,6,0,6,0.00
2013-5-30,88.3,75.9,64.8,71.8,66.9,62.8,94,75,50,30.27,30.19,5,0,5,0.00
2013-5-31,88.9,75.9,63.9,72.5,66.2,62.2,96,75,45,30.24,30.11,5,0,5,0.00
2013-6-1,89.4,78.1,68.0,73.4,67.7,63.9,93,72,48,30.14,30.01,9,0,10,0.00
2013-6-2,84.6,74.4,67.5,73.2,68.3,64.9,98,82,64,30.03,29.93,5,0,11,0.41
2013-6-3,81.3,72.2,67.6,75.0,69.6,66.4,99,92,65,30.01,29.87,5,0,6,0.14
2013-6-4,77.4,67.8,56.5,67.5,53.7,40.6,97,64,29,30.19,30.01,8,0,8,0.00
2013-6-5,80.8,68.2,55.0,62.6,56.9,51.1,94,70,43,30.23,30.10,4,0,4,0.00
2013-6-6,77.0,69.0,59.4,68.7,62.6,53.4,95,80,64,30.13,29.88,6,0,6,0.03
2013-6-7,71.4,69.4,67.3,70.7,68.9,66.9,99,98,95,29.88,29.61,6,0,6,1.07
2013-6-8,79.0,70.2,65.5,71.1,67.5,64.6,99,92,65,30.15,29.82,4,0,4,0.18
2013-6-9,85.1,71.8,62.1,76.5,68.7,61.5,99,91,67,30.22,30.11,5,0,5,0.22
2013-6-10,81.3,73.3,69.1,77.0,71.6,68.4,99,95,78,30.14,29.88,8,0,10,0.13
2013-6-11,83.7,73.8,67.6,73.6,69.2,65.8,99,87,61,29.95,29.87,8,0,8,0.01
2013-6-12,88.0,76.3,64.9,77.0,70.5,63.9,97,84,58,29.96,29.85,7,0,7,0.01
2013-6-13,90.0,75.3,64.2,77.9,72.0,62.8,98,91,59,29.86,29.55,8,0,10,0.01
2013-6-14,76.8,66.9,59.5,62.8,59.4,55.8,97,79,51,30.05,29.70,8,0,11,0.00
2013-6-15,82.6,69.6,57.7,66.0,61.2,56.8,98,78,44,30.15,30.05,5,0,6,0.01
2013-6-16,86.4,74.1,63.9,73.6,67.6,61.5,93,81,58,30.09,29.98,3,0,6,0.00
2013-6-17,84.4,74.7,68.2,75.6,71.1,67.3,98,89,68,30.05,29.94,3,0,3,0.01
2013-6-18,75.7,70.8,64.9,73.9,69.2,64.4,98,95,90,30.00,29.80,10,0,12,0.01
2013-6-19,75.7,68.5,63.7,69.1,65.7,63.1,99,91,75,30.20,29.93,3,0,4,0.00
2013-6-20,80.2,70.0,62.1,65.8,62.1,55.2,98,78,51,30.32,30.20,5,0,5,0.00
2013-6-21,82.2,69.5,55.6,67.3,59.6,49.6,96,74,36,30.35,30.28,5,0,5,0.00
2013-6-22,84.9,71.6,63.5,74.8,67.9,62.4,98,89,64,30.32,30.21,6,0,6,0.12
2013-6-23,84.6,75.0,69.1,77.0,72.1,68.5,99,91,70,30.24,30.15,3,0,4,0.57
2013-6-24,87.3,77.1,70.5,79.2,73.1,70.2,99,88,63,30.21,30.10,3,0,4,0.00
2013-6-25,89.8,79.1,71.1,78.1,73.1,70.5,98,83,55,30.12,29.98,5,0,5,0.00
2013-6-26,90.1,77.0,69.1,78.1,72.3,68.2,98,87,61,30.01,29.88,15,0,15,0.59
2013-6-27,82.8,73.5,67.3,76.8,71.2,66.9,99,93,73,29.92,29.72,7,0,8,0.03
2013-6-28,88.3,77.6,70.2,80.4,72.4,69.1,97,85,63,29.74,29.55,5,0,9,0.01
2013-6-29,87.6,77.4,69.3,73.8,70.3,64.8,96,80,49,29.77,29.60,6,0,6,0.01
2013-6-30,86.2,75.6,68.2,76.6,72.4,67.3,99,90,70,29.93,29.76,4,0,5,2.44
2013-7-1,81.9,73.8,68.2,76.6,72.2,67.6,99,95,78,30.04,29.91,3,0,4,0.31
2013-7-2,79.0,73.9,71.2,75.9,72.8,70.9,99,97,87,30.25,30.04,6,0,6,0.13
2013-7-3,81.7,75.2,71.2,79.2,74.2,70.9,99,97,84,30.30,30.22,5,0,5,0.49
2013-7-4,87.3,78.1,72.3,78.4,74.0,72.0,100,88,65,30.34,30.23,3,0,5,0.00
2013-7-5,88.0,78.4,70.9,77.5,73.8,70.0,98,87,65,30.32,30.20,3,0,4,0.00
2013-7-6,88.0,79.2,72.9,78.1,74.1,71.6,98,85,62,30.28,30.16,4,0,4,0.00
2013-7-7,87.6,79.5,73.4,78.6,74.5,72.1,97,85,68,30.20,30.07,7,0,8,0.00
2013-7-8,84.0,76.2,71.1,76.8,73.1,70.0,98,90,68,30.19,30.12,3,0,3,0.08
2013-7-9,87.4,78.1,71.4,80.1,75.1,70.9,99,91,71,30.18,30.08,3,0,3,0.01
2013-7-10,88.9,77.2,71.4,80.6,74.1,70.2,99,91,71,30.11,29.96,6,0,7,1.90
2013-7-11,81.7,74.3,70.3,77.0,73.0,70.0,99,96,79,30.00,29.93,2,0,2,0.11
2013-7-12,74.5,70.9,66.4,72.3,69.7,65.8,99,96,89,30.10,29.93,5,0,6,0.54
2013-7-13,82.8,73.9,66.7,76.8,71.9,66.4,99,94,81,30.31,30.10,4,0,4,0.01
2013-7-14,88.0,78.1,71.4,79.7,74.2,70.0,99,89,60,30.39,30.30,4,0,4,0.00
2013-7-15,90.3,78.9,69.6,80.2,74.3,69.1,99,87,59,30.38,30.27,5,0,5,0.00
2013-7-16,91.8,80.3,72.1,81.5,76.0,71.6,98,88,64,30.29,30.21,5,0,6,0.06
2013-7-17,90.9,79.7,72.3,80.6,76.2,72.0,99,90,61,30.27,30.14,2,0,2,0.00
2013-7-18,91.9,81.4,72.7,81.5,76.6,72.1,99,87,56,30.19,30.07,2,0,3,0.00
2013-7-19,91.8,82.2,73.9,82.2,77.2,73.4,98,86,62,30.10,29.96,6,0,6,0.00
2013-7-20,90.7,80.7,74.5,81.0,75.8,71.1,95,86,68,30.00,29.90,5,0,5,0.00
2013-7-21,89.1,77.3,71.1,79.5,74.0,70.5,98,90,65,30.02,29.92,7,0,11,0.20
2013-7-22,86.4,76.8,70.0,80.4,73.9,69.6,99,91,73,30.00,29.84,3,0,5,0.01
2013-7-23,87.3,78.7,73.0,77.4,74.3,71.8,98,87,64,29.85,29.72,7,0,7,0.00
2013-7-24,84.9,76.7,70.3,75.6,71.7,64.9,98,85,63,29.94,29.74,5,0,5,0.00
2013-7-25,78.3,71.4,63.5,67.5,63.2,58.5,93,76,57,30.09,29.91,7,0,7,0.00
2013-7-26,81.9,69.5,58.6,69.1,63.7,57.7,98,83,55,30.16,30.08,4,0,5,0.00
2013-7-27,82.9,72.1,63.7,74.3,69.3,62.8,99,92,71,30.12,29.98,4,0,5,0.31
2013-7-28,85.5,73.9,68.4,76.6,71.1,67.1,99,92,64,30.04,29.94,9,0,9,0.91
2013-7-29,81.0,71.4,64.8,70.0,66.1,59.7,99,85,55,30.22,30.03,5,0,6,0.00
2013-7-30,81.0,70.5,60.4,70.0,64.9,59.9,98,84,56,30.29,30.20,5,0,5,0.00
2013-7-31,81.3,70.3,63.9,73.4,68.2,63.3,99,93,70,30.21,30.08,3,0,4,0.21
2013-8-1,82.6,71.6,67.3,76.8,70.3,66.2,99,96,71,30.08,29.88,9,0,9,1.87
2013-8-2,83.8,72.8,65.1,73.8,68.6,64.6,100,88,57,30.05,29.93,3,0,5,0.00
2013-8-3,82.8,73.1,66.7,74.1,69.3,66.2,99,89,65,30.03,29.96,4,0,4,0.00
2013-8-4,81.7,72.5,62.4,69.4,64.6,57.9,98,78,48,30.10,29.96,7,0,7,0.00
2013-8-5,79.3,68.0,57.9,65.8,61.5,56.5,98,82,49,30.17,30.08,3,0,4,0.00
2013-8-6,75.0,69.0,65.1,72.1,67.8,63.1,99,96,88,30.12,30.05,5,0,6,0.31
2013-8-7,84.0,74.9,69.1,75.6,71.5,68.5,99,90,69,30.14,30.07,4,0,5,0.01
2013-8-8,85.1,77.3,71.8,78.3,74.0,70.7,97,90,74,30.11,30.04,4,0,4,0.00
2013-8-9,89.2,80.4,74.1,81.0,76.1,72.7,97,88,70,30.05,29.95,5,0,8,0.00
2013-8-10,85.5,75.6,71.1,77.5,73.6,69.3,99,94,74,30.15,30.02,8,0,9,1.05
2013-8-11,81.0,74.2,69.6,76.6,72.9,69.1,99,96,82,30.17,30.06,1,0,2,0.02
2013-8-12,87.3,77.5,70.2,78.1,73.7,69.8,100,89,61,30.09,29.97,3,0,4,0.00
2013-8-13,84.4,76.0,70.9,77.7,73.9,70.3,99,94,75,29.97,29.80,4,0,5,0.49
2013-8-14,72.3,66.6,57.7,70.9,62.9,55.2,99,89,56,30.17,29.85,5,0,5,0.01
2013-8-15,75.6,62.1,55.0,64.9,58.9,54.1,98,90,51,30.24,30.16,2,0,2,0.00
2013-8-16,74.7,64.4,55.6,65.8,60.4,55.0,98,88,56,30.27,30.18,3,0,3,0.00
2013-8-17,77.7,67.1,58.8,68.9,63.2,57.6,98,88,70,30.29,30.23,6,0,7,0.09
2013-8-18,67.3,65.3,63.5,66.7,64.9,63.1,99,98,97,30.28,30.20,8,0,8,0.59
2013-8-19,70.9,66.8,63.5,70.3,66.4,63.1,99,99,96,30.27,30.14,2,0,2,0.08
2013-8-20,82.6,73.3,67.5,76.3,71.1,67.1,100,93,71,30.24,30.16,2,0,2,0.01
2013-8-21,85.8,74.8,67.6,79.3,72.6,67.3,99,93,72,30.27,30.14,3,0,3,0.08
2013-8-22,85.8,76.6,71.6,77.7,73.3,70.3,100,91,64,30.16,30.02,3,0,3,0.01
2013-8-23,76.5,68.7,61.5,73.8,68.1,61.0,99,98,91,30.18,29.99,7,0,7,0.49
2013-8-24,79.7,67.5,58.1,70.7,63.7,57.7,100,89,55,30.39,30.18,5,0,6,0.00
2013-8-25,78.1,67.2,59.4,67.5,62.6,58.3,99,87,58,30.47,30.34,4,0,5,0.01
2013-8-26,81.9,67.8,55.9,71.4,63.3,55.2,98,87,61,30.39,30.11,3,0,4,0.00
2013-8-27,85.8,72.6,63.1,77.2,69.5,61.3,99,90,65,30.11,29.97,4,0,4,0.01
2013-8-28,75.7,73.1,71.6,74.8,72.6,71.2,100,99,96,30.01,29.88,0,0,1,0.23
2013-8-29,82.4,74.7,69.4,77.0,72.8,68.9,100,94,76,30.08,29.87,7,0,7,0.02
2013-8-30,83.1,72.9,65.7,73.4,69.4,65.3,99,90,67,30.12,29.98,2,0,3,0.00
2013-8-31,85.6,74.5,67.6,78.6,71.5,66.7,99,91,74,30.00,29.87,6,0,8,0.08
2013-9-1,87.8,75.5,68.4,79.0,72.6,68.0,100,91,69,29.93,29.81,2,0,3,0.03
2013-9-2,85.5,76.5,71.8,78.4,73.7,71.2,99,92,67,29.89,29.81,4,0,4,0.02
2013-9-3,83.8,75.3,70.0,73.6,70.8,66.0,99,87,62,30.01,29.80,7,0,7,0.00
2013-9-4,79.3,70.3,63.1,68.5,63.6,58.6,98,80,60,30.16,30.01,6,0,7,0.00
2013-9-5,84.0,70.9,61.2,69.3,64.7,58.3,99,83,43,30.17,30.07,3,0,5,0.00
2013-9-6,77.2,66.9,58.6,64.4,58.8,55.2,95,76,54,30.28,30.17,6,0,7,0.00
2013-9-7,76.5,65.3,56.1,68.0,61.7,55.2,98,89,68,30.20,30.01,3,0,5,0.00
2013-9-8,83.7,71.4,61.3,72.9,66.8,60.8,99,87,58,30.06,29.95,3,0,4,0.01
2013-9-9,77.4,71.6,66.6,71.6,67.5,60.1,98,87,72,30.24,30.06,5,0,6,0.00
2013-9-10,87.1,75.3,67.5,77.4,72.1,67.1,99,90,67,30.26,30.16,3,0,5,0.00
2013-9-11,88.0,76.7,69.3,78.3,72.3,68.4,98,87,67,30.22,30.09,4,0,4,0.00
2013-9-12,87.1,74.7,67.3,77.7,71.0,66.4,99,89,65,30.09,29.81,6,0,6,0.53
2013-9-13,77.4,69.4,61.9,68.7,64.0,54.1,99,84,53,29.98,29.77,6,0,6,0.00
2013-9-14,68.9,60.0,51.4,55.8,51.6,46.9,95,75,51,30.22,29.97,6,0,7,0.00
2013-9-15,75.0,60.1,47.5,62.6,54.8,46.8,98,84,56,30.32,30.16,4,0,4,0.00
2013-9-16,71.8,63.0,55.8,67.1,60.5,54.9,98,92,79,30.28,30.14,4,0,5,0.00
2013-9-17,69.3,58.5,49.5,56.7,53.0,46.4,98,83,50,30.46,30.28,8,0,8,0.00
2013-9-18,70.3,55.7,43.5,58.3,50.1,42.8,98,84,48,30.40,30.25,4,0,4,0.00
2013-9-19,73.4,61.0,50.0,64.0,57.2,49.5,98,88,60,30.27,30.15,2,0,2,0.00
2013-9-20,77.5,65.7,55.2,68.4,62.0,54.7,98,89,64,30.16,30.02,3,0,3,0.00
2013-9-21,71.4,65.3,58.8,68.2,63.6,57.9,99,94,83,30.03,29.77,8,0,15,0.49
2013-9-22,72.5,63.4,57.2,65.5,59.9,54.0,99,89,59,30.00,29.79,6,0,6,0.01
2013-9-23,67.1,57.5,49.5,55.6,51.4,48.2,97,81,56,30.16,29.99,8,0,8,0.00
2013-9-24,68.5,53.1,47.5,56.8,49.7,46.9,98,90,62,30.18,30.09,4,0,4,0.00
2013-10-4,83.8,71.9,61.2,72.1,67.3,60.8,99,87,59,30.16,30.08,3,0,4,0.00
2013-10-5,86.4,71.7,62.2,73.6,67.3,61.7,99,87,55,30.16,30.06,4,0,4,0.00
2013-10-6,84.6,72.2,64.0,70.9,66.7,63.5,99,85,58,30.11,29.98,5,0,5,0.00
2013-10-7,75.4,68.5,56.3,72.0,66.9,54.7,99,95,87,30.11,29.88,6,0,6,0.09
2013-10-8,63.9,56.3,52.7,55.2,51.6,48.2,96,85,64,30.32,30.11,9,0,9,0.00
2013-10-9,56.8,55.2,53.8,55.9,53.3,50.7,98,94,88,30.32,30.19,10,0,10,0.00
2013-10-10,57.7,55.4,53.2,56.8,54.7,52.7,98,98,96,30.20,30.00,7,0,8,0.00
2013-10-11,62.1,59.5,57.0,61.2,58.8,56.5,99,98,94,30.02,29.96,7,0,7,0.09
2013-10-12,64.8,62.6,60.6,64.4,62.1,60.3,99,99,97,30.18,29.99,5,0,5,0.09
2013-10-13,63.3,61.8,60.1,63.0,61.3,59.5,99,99,98,30.33,30.16,6,0,8,0.20
2013-10-14,64.8,59.7,54.0,61.7,58.1,52.9,99,95,83,30.37,30.27,5,0,5,0.00
2013-10-15,68.9,59.6,51.1,62.8,57.1,50.4,99,92,73,30.28,30.14,5,0,5,0.00
2013-10-16,70.2,64.0,58.5,65.7,61.9,57.6,99,93,80,30.14,29.99,3,0,3,0.00
2013-10-17,74.1,65.8,60.6,67.3,63.3,59.7,99,92,77,30.00,29.83,5,0,5,0.01
2013-10-18,66.4,58.2,49.5,63.1,51.7,44.4,96,81,47,30.10,29.88,3,0,3,0.00
2013-10-19,62.8,56.0,48.0,61.3,55.0,47.1,98,96,93,30.06,29.86,2,0,2,0.00
2013-10-20,60.6,51.7,42.8,56.5,44.5,35.8,97,79,41,30.19,29.94,6,0,6,0.01
2013-10-21,64.9,50.5,38.5,50.7,44.3,37.4,98,82,45,30.24,30.05,4,0,5,0.00
2013-10-22,69.8,56.8,48.9,58.5,52.4,46.8,97,86,53,30.05,29.86,5,0,5,0.00
2013-10-23,57.9,50.8,44.6,52.9,45.6,39.2,96,83,63,30.01,29.74,6,0,7,0.14
2013-10-24,53.6,44.0,35.2,40.1,36.7,33.1,97,77,48,30.24,30.01,9,0,9,0.00
2013-10-25,54.3,41.3,31.5,36.5,32.1,26.4,96,73,35,30.42,30.23,7,0,7,0.00
2013-10-26,55.6,42.5,30.0,39.9,33.1,28.2,97,73,36,30.41,30.06,9,0,9,0.00
2013-10-27,62.1,50.0,39.2,45.5,40.6,36.0,93,72,44,30.20,30.07,8,0,9,0.00
2013-10-28,64.9,50.0,37.0,50.9,44.0,35.8,97,82,50,30.33,30.19,3,0,3,0.00
2013-10-29,65.7,56.1,49.8,51.1,49.4,47.5,93,80,53,30.43,30.32,4,0,4,0.00
2013-10-30,65.1,55.8,48.7,60.4,53.6,47.1,98,93,81,30.38,30.22,2,0,2,0.06
2013-10-31,71.1,61.9,53.4,63.5,58.1,52.9,99,88,73,30.25,29.88,4,0,4,0.00
2013-11-1,70.3,67.7,62.1,65.5,63.7,59.4,97,87,79,29.89,29.69,9,0,10,0.01
2013-11-2,69.6,60.2,48.9,61.2,51.7,38.8,99,77,34,29.97,29.70,8,0,9,0.00
2013-11-3,60.3,47.6,37.9,43.7,37.4,29.3,96,71,34,30.47,29.97,8,0,8,0.00
2013-11-4,49.5,41.1,34.2,34.5,30.7,25.9,83,68,41,30.70,30.47,5,0,7,0.00
2013-11-5,54.9,46.0,37.0,46.4,39.5,31.8,89,78,66,30.68,30.53,4,0,5,0.00
2013-11-6,68.2,55.1,43.3,55.2,49.7,41.7,98,83,59,30.53,30.17,5,0,5,0.00
2013-11-7,68.2,57.5,45.3,62.2,52.8,34.3,99,85,56,30.17,29.94,6,0,8,0.02
2013-11-8,55.6,43.0,32.4,36.1,30.2,24.6,92,63,35,30.41,30.15,12,0,12,0.00
2013-11-9,56.5,42.0,28.6,35.8,30.6,26.8,96,68,35,30.45,30.17,10,0,13,0.00
2013-11-10,66.9,51.6,40.3,41.4,33.5,22.6,82,54,22,30.33,30.04,10,0,10,0.00
2013-11-11,57.4,45.5,32.2,35.8,31.8,28.6,91,61,36,30.42,30.14,5,0,5,0.00
2013-11-12,50.2,42.6,32.4,40.3,28.5,16.9,76,58,43,30.49,30.03,12,1,14,0.00
2013-11-13,44.2,33.1,25.7,23.9,20.2,16.7,83,61,35,30.59,30.49,10,0,10,0.00
2013-11-14,57.2,37.1,24.3,30.4,23.0,16.3,92,62,21,30.49,30.34,5,0,6,0.00
2013-11-15,59.7,46.7,32.7,45.9,32.0,23.7,91,60,26,30.37,30.27,4,0,5,0.04
2013-11-16,56.1,52.8,48.4,54.7,51.7,46.2,98,96,92,30.37,30.30,0,0,1,0.56
2013-11-17,67.5,59.1,51.3,61.7,56.7,50.7,99,92,77,30.30,29.86,5,0,7,0.02
2013-11-18,67.8,61.0,50.0,65.3,46.9,25.5,98,64,30,30.01,29.80,11,0,11,0.15
2013-11-19,51.3,44.7,37.8,32.4,29.5,25.9,77,56,40,30.43,30.00,11,0,11,0.00
2013-11-20,48.9,40.0,34.0,35.8,30.7,27.1,91,70,50,30.60,30.43,8,0,8,0.00
2013-11-21,54.1,44.8,35.8,45.3,39.8,33.4,92,83,69,30.61,30.47,4,0,4,0.00
2013-11-22,69.6,57.3,44.6,58.1,51.4,42.1,92,81,64,30.47,30.08,5,0,9,0.00
2013-11-23,60.6,51.2,39.9,57.4,36.0,17.6,91,58,32,30.23,30.07,9,0,10,0.00
2013-11-24,39.9,30.1,22.3,20.7,8.5,0.7,67,41,25,30.63,30.23,10,1,14,0.00
2013-11-25,36.9,28.5,19.0,18.9,13.7,9.1,84,56,32,30.67,30.45,8,0,8,0.00
2013-11-26,59.0,39.7,33.4,58.6,34.6,14.5,99,84,42,30.47,29.63,6,0,8,1.04
2013-11-27,42.3,38.8,31.6,41.7,36.9,21.6,98,93,66,30.18,29.57,7,0,9,0.32
2013-11-28,39.4,30.7,23.9,27.0,22.3,17.6,94,73,45,30.56,30.18,6,0,6,0.00
2013-11-29,44.4,31.9,23.5,28.0,24.5,21.7,94,76,46,30.78,30.53,6,0,7,0.00
2013-11-30,41.2,31.6,25.3,31.1,25.4,22.1,90,79,57,30.78,30.46,4,0,4,0.00
2013-12-1,50.2,34.1,23.0,34.9,28.2,21.2,95,81,49,30.46,30.09,3,0,3,0.00
2013-12-2,56.1,40.6,28.0,39.9,33.8,26.6,96,79,47,30.09,29.92,2,0,3,0.00
2013-12-3,58.6,44.5,33.6,44.4,38.9,32.2,97,82,55,30.07,29.94,5,0,5,0.00
2013-12-4,59.4,52.4,45.9,53.8,49.8,42.8,97,91,82,30.15,30.06,6,0,6,0.00
2013-12-5,63.1,59.3,53.2,62.6,58.3,51.8,98,96,91,30.16,30.03,5,0,5,0.01
2013-12-6,66.9,57.1,43.3,65.1,55.5,42.1,98,94,79,30.18,29.98,7,0,7,0.05
2013-12-7,45.0,40.2,34.2,42.8,35.8,28.4,97,85,67,30.60,30.15,9,0,9,0.35
2013-12-8,34.2,32.5,31.6,31.6,29.5,25.0,97,89,72,30.63,30.37,5,0,5,0.50
2013-12-9,38.5,35.1,32.4,37.9,34.5,31.6,98,98,97,30.37,30.11,3,0,3,0.10
2013-12-10,38.7,35.7,29.5,37.6,35.0,28.8,99,97,95,30.34,30.06,3,0,3,0.27
2013-12-11,44.1,32.1,24.1,30.4,26.6,23.2,97,82,47,30.50,30.33,5,0,5,0.01
2013-12-12,37.6,30.2,25.9,27.3,22.6,14.7,96,75,43,30.50,30.33,5,0,5,0.00
2013-12-13,45.9,33.2,24.3,29.7,22.5,17.4,88,68,34,30.41,30.31,5,0,6,0.00
2013-12-14,42.4,37.3,33.3,39.6,34.4,28.8,98,89,70,30.39,29.81,4,0,4,0.70
2013-12-15,51.6,40.9,32.7,43.5,35.1,27.7,99,82,50,30.07,29.73,9,0,12,0.00
2013-12-16,45.1,36.7,29.5,34.3,31.0,27.5,95,80,57,30.22,30.05,5,0,5,0.00
2013-12-17,52.3,39.7,29.5,42.1,35.4,28.0,96,86,60,30.19,29.97,12,0,12,0.47
2013-12-18,43.2,35.7,28.6,39.2,30.1,24.3,97,82,48,30.31,30.03,7,0,8,0.01
2013-12-19,60.8,43.5,28.2,37.8,29.7,26.4,94,63,30,30.31,30.21,9,0,9,0.00
2013-12-20,64.4,52.6,42.6,53.2,43.0,30.2,86,70,53,30.24,30.10,10,0,10,0.00
2013-12-21,70.0,60.2,52.2,63.0,54.9,48.4,95,83,66,30.16,30.03,6,0,9,0.00
2013-12-22,72.0,65.5,60.3,67.5,63.0,59.4,98,92,83,30.11,29.97,12,0,12,0.41
2013-12-23,64.2,57.9,41.7,63.9,56.6,33.8,99,95,74,30.27,30.01,7,0,8,0.32
2013-12-24,42.6,36.8,28.2,34.7,26.2,11.7,84,66,46,30.55,30.25,11,0,11,0.00
2013-12-25,33.3,26.4,20.5,20.1,14.7,11.5,87,62,43,30.66,30.47,5,0,6,0.00
2013-12-26,47.7,32.3,22.3,27.5,23.4,19.9,93,73,40,30.47,30.30,6,0,7,0.00
2013-12-27,50.0,34.4,23.7,28.6,24.6,21.6,94,72,34,30.54,30.42,5,0,6,0.00
2013-12-28,58.8,41.1,26.6,34.7,27.8,24.3,92,63,28,30.45,30.22,7,0,7,0.00
2013-12-29,50.4,45.2,40.6,49.8,43.7,34.7,98,94,69,30.23,29.67,7,0,7,1.33
2013-12-30,51.4,42.1,36.1,45.5,38.3,32.0,99,87,69,30.24,29.93,6,0,6,0.00
2013-12-31,49.3,38.0,28.8,34.9,28.5,21.2,94,71,37,30.42,30.22,9,0,11,0.00
2014-1-1,48.4,34.3,25.0,33.1,27.6,23.0,95,78,49,30.48,30.21,5,0,8,0.00
2014-1-2,43.5,35.2,29.8,38.5,32.2,26.6,96,89,70,30.21,29.66,3,0,3,0.32